METAR Data
IDs: Format: Raw Decoded Include TAF

Data at: 0540 UTC 19 Aug 2019

KADF 190456Z AUTO 06003KT 10SM CLR 26/24 A2997 RMK AO2 SLP148 T02560244
KADF 190356Z AUTO 36003KT 10SM CLR 27/25 A2996 RMK AO2 SLP144 T02670250
KADF 190256Z AUTO 04004KT 10SM BKN055 28/26 A2994 RMK AO2 SLP137 T02780256 51033
KADF 190156Z AUTO 02006KT 10SM CLR 29/26 A2992 RMK AO2 SLP130 T02890261
KADF 190056Z AUTO 00000KT 10SM CLR 30/27 A2988 RMK AO2 SLP119 T03000267
KADF 182356Z AUTO 19006KT 10SM CLR 33/26 A2984 RMK AO2 SLP105 T03330256 10356 20333 56026
KADF 182156Z AUTO 00000KT 10SM CLR 34/24 A2990 RMK AO2 SLP126 T03440239
KADF 182056Z AUTO 28005KT 10SM SCT046 33/25 A2992 RMK AO2 TSB10E28 SLP130 T03330250 56010
KADF 182039Z AUTO 24005KT 10SM FEW044 35/25 A2992 RMK AO2 TSB10E28
KADF 182021Z AUTO 23006KT 10SM VCTS FEW044 35/25 A2992 RMK AO2 LTG DSNT NW TSB10
KADF 181956Z AUTO 25004KT 10SM FEW044 34/24 A2992 RMK AO2 LTG DSNT N AND NE SLP132 T03440244
KADF 181856Z AUTO VRB04KT 10SM FEW040 SCT050 34/25 A2994 RMK AO2 SLP137 T03390250
KADF 181756Z AUTO 20006KT 10SM FEW035 33/25 A2995 RMK AO2 SLP141 T03330250 10333 20222 58004
KADF 181656Z AUTO 28005KT 10SM SCT028 BKN039 OVC070 31/25 A2997 RMK AO2 SLP148 T03110250
KADF 181647Z AUTO 25004KT 10SM SCT028 BKN037 OVC050 31/25 A2997 RMK AO2
KADF 181556Z AUTO 26006KT 10SM BKN024 32/26 A2996 RMK AO2 SLP145 T03170261
KADF 181551Z AUTO 25006KT 10SM BKN024 31/26 A2996 RMK AO2
KADF 181518Z AUTO 22006KT 10SM SCT020 30/26 A2996 RMK AO2
KADF 181456Z AUTO 24010KT 10SM BKN018 29/26 A2995 RMK AO2 SLP144 T02940256 53009
KADF 181449Z AUTO 23009KT 10SM BKN016 29/26 A2995 RMK AO2
KADF 181406Z AUTO 18005KT 9SM SCT010 28/26 A2993 RMK AO2
KADF 181356Z AUTO 20005KT 10SM BKN008 27/26 A2993 RMK AO2 CIG 008V013 SLP136 T02720256
KADF 181348Z AUTO 21004KT 10SM BKN008 27/25 A2993 RMK AO2
KADF 181336Z AUTO 19004KT 10SM BKN010 26/24 A2993 RMK AO2
KADF 181256Z AUTO 00000KT 10SM FEW012 24/24 A2993 RMK AO2 SLP136 T02440239
KADF 181156Z AUTO 00000KT 7SM CLR 22/22 A2992 RMK AO2 SLP131 T02220222 10244 20217 53004
KADF 181056Z AUTO 00000KT 9SM CLR 22/22 A2991 RMK AO2 SLP128 T02220222
KADF 180956Z AUTO 00000KT 6SM BR CLR 23/23 A2991 RMK AO2 SLP126 T02280228
KADF 180856Z AUTO 00000KT 10SM CLR 23/22 A2990 RMK AO2 SLP126 T02280222 55001
KADF 180756Z AUTO 00000KT 10SM CLR 23/23 A2990 RMK AO2 SLP123 T02330228
KADF 180656Z AUTO 00000KT 10SM CLR 24/23 A2991 RMK AO2 SLP128 T02390233
KADF 180556Z AUTO 00000KT 8SM FEW085 24/24 A2991 RMK AO2 SLP127 T02440239 10333 20244 403610206 50006
KADF 180456Z AUTO 00000KT 10SM CLR 25/24 A2991 RMK AO2 SLP129 T02500244
KADF 180356Z AUTO 00000KT 10SM CLR 26/25 A2991 RMK AO2 SLP128 T02560250
KADF 180256Z AUTO 24003KT 10SM CLR 26/25 A2989 RMK AO2 SLP121 T02610250 53013
KADF 180156Z AUTO 00000KT 10SM CLR 27/26 A2987 RMK AO2 SLP115 T02670256
KADF 180056Z AUTO 00000KT 10SM CLR 29/26 A2986 RMK AO2 SLP110 T02940256
KADF 172356Z AUTO 15003KT 10SM CLR 33/24 A2985 RMK AO2 SLP108 T03330244 10361 20328 58009
KADF 172256Z AUTO 17006KT 10SM CLR 34/23 A2986 RMK AO2 SLP113 T03440228
KADF 172156Z AUTO 14007KT 120V180 10SM CLR 36/23 A2987 RMK AO2 SLP115 T03560228
KADF 172056Z AUTO VRB03KT 10SM FEW050 36/24 A2988 RMK AO2 SLP118 T03560244 56019
KADF 171956Z AUTO VRB04KT 10SM CLR 36/25 A2989 RMK AO2 SLP123 T03560250
KADF 171856Z AUTO 18005KT 10SM FEW046 34/24 A2991 RMK AO2 SLP130 T03390244
KADF 171756Z AUTO 00000KT 10SM SCT038 33/24 A2993 RMK AO2 SLP137 T03280244 10339 20211 58008